createdAt,value
2018-05-06T00:00:47.785Z,0.00
2018-05-06T00:01:47.760Z,0.00
2018-05-06T00:02:47.788Z,0.00
2018-05-06T00:03:47.814Z,0.00
2018-05-06T00:04:47.841Z,0.00
2018-05-06T00:05:47.869Z,0.00
2018-05-06T00:06:47.897Z,0.00
2018-05-06T00:07:47.926Z,0.00
2018-05-06T00:08:47.950Z,0.00
2018-05-06T00:09:47.978Z,0.00
2018-05-06T00:10:48.006Z,0.00
2018-05-06T00:11:48.032Z,0.00
2018-05-06T00:12:48.059Z,0.00
2018-05-06T00:13:48.086Z,0.00
2018-05-06T00:14:48.114Z,0.00
2018-05-06T00:15:48.141Z,0.00
2018-05-06T00:16:48.168Z,0.00
2018-05-06T00:17:48.196Z,0.00
2018-05-06T00:18:48.224Z,0.00
2018-05-06T00:19:48.251Z,0.00
2018-05-06T00:20:48.277Z,0.00
2018-05-06T00:21:48.304Z,0.00
2018-05-06T00:22:48.332Z,0.00
2018-05-06T00:23:48.358Z,0.00
2018-05-06T00:24:48.386Z,0.00
2018-05-06T00:25:48.414Z,0.00
2018-05-06T00:26:48.441Z,0.00
2018-05-06T00:27:48.469Z,0.00
2018-05-06T00:28:48.494Z,0.00
2018-05-06T00:29:48.522Z,0.00
2018-05-06T00:30:48.550Z,0.00
2018-05-06T00:31:48.576Z,0.00
2018-05-06T00:32:48.610Z,0.00
2018-05-06T00:33:48.631Z,0.00
2018-05-06T00:34:48.659Z,0.00
2018-05-06T00:35:48.719Z,0.00
2018-05-06T00:36:48.713Z,0.00
2018-05-06T00:37:48.740Z,0.00
2018-05-06T00:38:48.772Z,0.00
2018-05-06T00:39:48.826Z,0.00
2018-05-06T00:40:48.821Z,0.00
2018-05-06T00:41:48.850Z,0.00
2018-05-06T00:42:48.877Z,0.00
2018-05-06T00:43:48.903Z,0.00
2018-05-06T00:44:48.931Z,0.00
2018-05-06T00:45:48.958Z,0.00
2018-05-06T00:46:48.985Z,0.00
2018-05-06T00:47:49.012Z,0.00
2018-05-06T00:48:49.040Z,0.00
2018-05-06T00:49:49.067Z,0.00
2018-05-06T00:50:49.095Z,0.00
2018-05-06T00:51:49.120Z,0.00
2018-05-06T00:52:49.148Z,0.00
2018-05-06T00:53:49.176Z,0.00
2018-05-06T00:54:49.203Z,0.00
2018-05-06T00:55:49.230Z,0.00
2018-05-06T00:56:49.257Z,0.00
2018-05-06T00:57:49.285Z,0.00
2018-05-06T00:58:49.312Z,0.00
2018-05-06T00:59:49.340Z,0.00
2018-05-06T01:00:49.366Z,0.00
2018-05-06T01:01:49.393Z,0.00
2018-05-06T01:02:49.421Z,0.00
2018-05-06T01:03:49.451Z,0.00
2018-05-06T01:04:49.501Z,0.00
2018-05-06T01:05:49.502Z,0.00
2018-05-06T01:06:49.530Z,0.00
2018-05-06T01:07:49.565Z,0.00
2018-05-06T01:08:49.584Z,0.00
2018-05-06T01:09:49.642Z,0.00
2018-05-06T01:10:49.639Z,0.00
2018-05-06T01:11:49.680Z,0.00
2018-05-06T01:12:49.694Z,0.00
2018-05-06T01:13:49.721Z,0.00
2018-05-06T01:14:49.748Z,0.00
2018-05-06T01:15:49.775Z,0.00
2018-05-06T01:16:49.803Z,0.00
2018-05-06T01:17:49.832Z,0.00
2018-05-06T01:18:49.857Z,0.00
2018-05-06T01:19:49.883Z,0.00
2018-05-06T01:20:49.911Z,0.00
2018-05-06T01:21:49.943Z,0.00
2018-05-06T01:22:49.966Z,0.00
2018-05-06T01:23:49.992Z,0.00
2018-05-06T01:24:50.020Z,0.00
2018-05-06T01:25:50.047Z,0.00
2018-05-06T01:26:50.075Z,0.00
2018-05-06T01:27:50.101Z,0.00
2018-05-06T01:28:50.152Z,0.00
2018-05-06T01:29:50.156Z,0.00
2018-05-06T01:30:50.189Z,0.00
2018-05-06T01:31:50.211Z,0.00
2018-05-06T01:32:50.238Z,0.00
2018-05-06T01:33:50.265Z,0.00
2018-05-06T01:34:50.340Z,0.00
2018-05-06T01:35:50.319Z,0.00
2018-05-06T01:36:50.346Z,0.00
2018-05-06T01:37:50.374Z,0.00
2018-05-06T01:38:50.401Z,0.00
2018-05-06T01:39:50.428Z,0.00
2018-05-06T01:40:50.469Z,0.00
2018-05-06T01:41:50.483Z,0.00
2018-05-06T01:42:50.512Z,0.00
2018-05-06T01:43:50.537Z,0.00
2018-05-06T01:44:50.599Z,0.00
2018-05-06T01:45:50.593Z,0.00
2018-05-06T01:46:50.619Z,0.00
2018-05-06T01:47:50.646Z,0.00
2018-05-06T01:48:50.673Z,0.00
2018-05-06T01:49:50.701Z,0.00
2018-05-06T01:50:50.729Z,0.00
2018-05-06T01:51:50.760Z,0.00
2018-05-06T01:52:50.785Z,0.00
2018-05-06T01:53:50.809Z,0.00
2018-05-06T01:54:50.837Z,0.00
2018-05-06T01:55:50.863Z,0.00
2018-05-06T01:56:50.891Z,0.00
2018-05-06T01:57:50.918Z,0.00
2018-05-06T01:58:50.945Z,0.00
2018-05-06T01:59:50.972Z,0.00
2018-05-06T02:00:51.014Z,0.00
2018-05-06T02:01:51.028Z,0.00
2018-05-06T02:02:51.055Z,0.00
2018-05-06T02:03:51.098Z,0.00
2018-05-06T02:04:51.110Z,0.00
2018-05-06T02:05:51.136Z,0.00
2018-05-06T02:06:51.165Z,0.00
2018-05-06T02:07:51.190Z,0.00
2018-05-06T02:08:51.219Z,0.00
2018-05-06T02:09:51.245Z,0.00
2018-05-06T02:10:51.302Z,0.00
2018-05-06T02:11:51.303Z,0.00
2018-05-06T02:12:51.326Z,5.63
2018-05-06T02:13:51.358Z,5.63
2018-05-06T02:14:51.395Z,5.63
2018-05-06T02:15:51.408Z,5.63
2018-05-06T02:16:51.435Z,5.63
2018-05-06T02:17:51.463Z,5.63
2018-05-06T02:18:51.520Z,5.63
2018-05-06T02:19:51.518Z,5.63
2018-05-06T02:20:51.544Z,5.63
2018-05-06T02:21:51.571Z,5.63
2018-05-06T02:22:51.600Z,5.63
2018-05-06T02:23:51.676Z,5.63
2018-05-06T02:24:51.670Z,11.25
2018-05-06T02:25:51.699Z,11.25
2018-05-06T02:26:51.716Z,11.25
2018-05-06T02:27:51.734Z,11.25
2018-05-06T02:28:51.763Z,11.25
2018-05-06T02:29:51.789Z,11.25
2018-05-06T02:30:51.817Z,11.25
2018-05-06T02:31:51.844Z,11.25
2018-05-06T02:32:51.872Z,11.25
2018-05-06T02:33:51.899Z,11.25
2018-05-06T02:34:51.926Z,11.25
2018-05-06T02:35:51.984Z,16.88
2018-05-06T02:36:51.982Z,16.88
2018-05-06T02:37:52.028Z,16.88
2018-05-06T02:38:52.039Z,16.88
2018-05-06T02:39:52.062Z,16.88
2018-05-06T02:40:52.090Z,16.88
2018-05-06T02:41:52.123Z,16.88
2018-05-06T02:42:52.145Z,16.88
2018-05-06T02:43:52.171Z,22.50
2018-05-06T02:44:52.200Z,22.50
2018-05-06T02:45:52.226Z,22.50
2018-05-06T02:46:52.255Z,22.50
2018-05-06T02:47:52.280Z,22.50
2018-05-06T02:48:52.309Z,22.50
2018-05-06T02:49:52.336Z,22.50
2018-05-06T02:50:52.369Z,28.13
2018-05-06T02:51:52.391Z,28.13
2018-05-06T02:52:52.417Z,28.13
2018-05-06T02:53:52.446Z,28.13
2018-05-06T02:54:52.474Z,28.13
2018-05-06T02:55:52.499Z,28.13
2018-05-06T02:56:52.527Z,28.13
2018-05-06T02:57:52.555Z,28.13
2018-05-06T02:58:52.586Z,28.13
2018-05-06T02:59:52.611Z,33.75
2018-05-06T03:00:52.637Z,33.75
2018-05-06T03:01:52.665Z,33.75
2018-05-06T03:02:52.693Z,33.75
2018-05-06T03:03:52.725Z,33.75
2018-05-06T03:04:52.749Z,33.75
2018-05-06T03:05:52.775Z,33.75
2018-05-06T03:06:52.806Z,39.38
2018-05-06T03:07:52.833Z,39.38
2018-05-06T03:08:52.859Z,33.75
2018-05-06T03:09:52.884Z,33.75
2018-05-06T03:10:52.914Z,28.13
2018-05-06T03:11:52.939Z,22.50
2018-05-06T03:12:53.005Z,22.50
2018-05-06T03:13:52.998Z,22.50
2018-05-06T03:14:53.023Z,22.50
2018-05-06T03:15:53.051Z,22.50
2018-05-06T03:16:53.077Z,22.50
2018-05-06T03:17:53.105Z,28.13
2018-05-06T03:18:53.133Z,28.13
2018-05-06T03:19:53.160Z,28.13
2018-05-06T03:20:53.188Z,28.13
2018-05-06T03:21:53.216Z,28.13
2018-05-06T03:22:53.244Z,28.13
2018-05-06T03:23:53.270Z,28.13
2018-05-06T03:24:53.322Z,33.75
2018-05-06T03:25:53.326Z,28.13
2018-05-06T03:26:53.355Z,22.50
2018-05-06T03:27:53.385Z,22.50
2018-05-06T03:28:53.409Z,22.50
2018-05-06T03:29:53.436Z,22.50
2018-05-06T03:30:53.465Z,22.50
2018-05-06T03:31:53.492Z,22.50
2018-05-06T03:32:53.520Z,22.50
2018-05-06T03:33:53.548Z,22.50
2018-05-06T03:34:53.575Z,22.50
2018-05-06T03:35:53.601Z,22.50
2018-05-06T03:36:53.638Z,22.50
2018-05-06T03:37:53.657Z,22.50
2018-05-06T03:38:53.687Z,22.50
2018-05-06T03:39:53.712Z,22.50
2018-05-06T03:40:53.741Z,22.50
2018-05-06T03:41:53.768Z,22.50
2018-05-06T03:42:53.799Z,28.13
2018-05-06T03:43:53.823Z,33.75
2018-05-06T03:44:53.852Z,45.00
2018-05-06T03:45:53.878Z,45.00
2018-05-06T03:46:53.907Z,39.38
2018-05-06T03:47:53.934Z,33.75
2018-05-06T03:48:53.962Z,33.75
2018-05-06T03:49:54.028Z,39.38
2018-05-06T03:50:54.019Z,50.63
2018-05-06T03:51:54.045Z,67.50
2018-05-06T03:52:54.072Z,73.13
2018-05-06T03:53:54.101Z,73.13
2018-05-06T03:54:54.129Z,78.75
2018-05-06T03:55:54.155Z,90.00
2018-05-06T03:56:54.184Z,101.25
2018-05-06T03:57:54.211Z,101.25
2018-05-06T03:58:54.239Z,106.88
2018-05-06T03:59:54.290Z,112.50
2018-05-06T04:00:54.293Z,106.88
2018-05-06T04:01:54.343Z,106.88
2018-05-06T04:02:54.350Z,106.88
2018-05-06T04:03:54.380Z,101.25
2018-05-06T04:04:54.405Z,101.25
2018-05-06T04:05:54.435Z,95.63
2018-05-06T04:06:54.463Z,90.00
2018-05-06T04:07:54.488Z,84.38
2018-05-06T04:08:54.517Z,84.38
2018-05-06T04:09:54.544Z,95.63
2018-05-06T04:10:54.572Z,78.75
2018-05-06T04:11:54.615Z,61.88
2018-05-06T04:12:54.642Z,45.00
2018-05-06T04:13:54.656Z,33.75
2018-05-06T04:14:54.684Z,33.75
2018-05-06T04:15:54.711Z,33.75
2018-05-06T04:16:54.744Z,28.13
2018-05-06T04:17:54.767Z,28.13
2018-05-06T04:18:54.800Z,28.13
2018-05-06T04:19:54.823Z,22.50
2018-05-06T04:20:54.850Z,22.50
2018-05-06T04:21:54.883Z,22.50
2018-05-06T04:22:54.908Z,22.50
2018-05-06T04:23:54.935Z,22.50
2018-05-06T04:24:54.963Z,22.50
2018-05-06T04:25:54.991Z,22.50
2018-05-06T04:26:55.199Z,22.50
2018-05-06T04:27:55.050Z,22.50
2018-05-06T04:28:55.074Z,33.75
2018-05-06T04:29:55.102Z,45.00
2018-05-06T04:30:55.131Z,33.75
2018-05-06T04:31:55.158Z,28.13
2018-05-06T04:32:55.184Z,28.13
2018-05-06T04:33:55.209Z,33.75
2018-05-06T04:34:55.239Z,39.38
2018-05-06T04:35:55.264Z,39.38
2018-05-06T04:36:55.292Z,33.75
2018-05-06T04:37:55.320Z,33.75
2018-05-06T04:38:55.348Z,28.13
2018-05-06T04:39:55.375Z,22.50
2018-05-06T04:40:55.403Z,28.13
2018-05-06T04:41:55.431Z,28.13
2018-05-06T04:42:55.500Z,28.13
2018-05-06T04:43:55.486Z,28.13
2018-05-06T04:44:55.517Z,28.13
2018-05-06T04:45:55.543Z,22.50
2018-05-06T04:46:55.577Z,22.50
2018-05-06T04:47:55.601Z,22.50
2018-05-06T04:48:55.626Z,28.13
2018-05-06T04:49:55.693Z,28.13
2018-05-06T04:50:55.682Z,28.13
2018-05-06T04:51:55.709Z,28.13
2018-05-06T04:52:55.738Z,28.13
2018-05-06T04:53:55.766Z,33.75
2018-05-06T04:54:55.793Z,50.63
2018-05-06T04:55:55.822Z,84.38
2018-05-06T04:56:55.850Z,123.75
2018-05-06T04:57:55.877Z,129.38
2018-05-06T04:58:55.905Z,135.00
2018-05-06T04:59:55.957Z,123.75
2018-05-06T05:00:55.960Z,118.13
2018-05-06T05:01:55.991Z,112.50
2018-05-06T05:02:56.016Z,106.88
2018-05-06T05:03:56.044Z,101.25
2018-05-06T05:04:56.072Z,112.50
2018-05-06T05:05:56.100Z,106.88
2018-05-06T05:06:56.131Z,90.00
2018-05-06T05:07:56.155Z,95.63
2018-05-06T05:08:56.188Z,95.63
2018-05-06T05:09:56.211Z,78.75
2018-05-06T05:10:56.240Z,84.38
2018-05-06T05:11:56.267Z,78.75
2018-05-06T05:12:56.295Z,67.50
2018-05-06T05:13:56.323Z,67.50
2018-05-06T05:14:56.352Z,78.75
2018-05-06T05:15:56.379Z,78.75
2018-05-06T05:16:56.407Z,61.88
2018-05-06T05:17:56.438Z,50.63
2018-05-06T05:18:56.465Z,39.38
2018-05-06T05:19:56.495Z,33.75
2018-05-06T05:20:56.573Z,33.75
2018-05-06T05:21:56.547Z,33.75
2018-05-06T05:22:56.576Z,39.38
2018-05-06T05:23:56.602Z,33.75
2018-05-06T05:24:56.631Z,28.13
2018-05-06T05:25:56.659Z,28.13
2018-05-06T05:26:56.690Z,28.13
2018-05-06T05:27:56.715Z,28.13
2018-05-06T05:28:56.744Z,28.13
2018-05-06T05:29:56.771Z,22.50
2018-05-06T05:30:56.800Z,22.50
2018-05-06T05:31:56.826Z,22.50
2018-05-06T05:32:56.856Z,22.50
2018-05-06T05:33:56.883Z,22.50
2018-05-06T05:34:56.912Z,22.50
2018-05-06T05:35:56.940Z,22.50
2018-05-06T05:36:56.972Z,22.50
2018-05-06T05:37:56.994Z,22.50
2018-05-06T05:38:57.023Z,22.50
2018-05-06T05:39:57.050Z,22.50
2018-05-06T05:40:57.078Z,22.50
2018-05-06T05:41:57.107Z,28.13
2018-05-06T05:42:57.135Z,28.13
2018-05-06T05:43:57.162Z,28.13
2018-05-06T05:44:57.190Z,28.13
2018-05-06T05:45:57.219Z,28.13
2018-05-06T05:46:57.267Z,28.13
2018-05-06T05:47:57.368Z,28.13
2018-05-06T05:48:57.303Z,33.75
2018-05-06T05:49:57.330Z,33.75
2018-05-06T05:50:57.359Z,33.75
2018-05-06T05:51:57.386Z,33.75
2018-05-06T05:52:57.413Z,33.75
2018-05-06T05:53:57.463Z,39.38
2018-05-06T05:54:57.472Z,39.38
2018-05-06T05:55:57.497Z,39.38
2018-05-06T05:56:57.525Z,39.38
2018-05-06T05:57:57.554Z,39.38
2018-05-06T05:58:57.582Z,39.38
2018-05-06T05:59:57.621Z,39.38
2018-05-06T06:00:57.636Z,33.75
2018-05-06T06:01:57.692Z,39.38
2018-05-06T06:02:57.692Z,33.75
2018-05-06T06:03:57.720Z,39.38
2018-05-06T06:04:57.749Z,33.75
2018-05-06T06:05:57.799Z,33.75
2018-05-06T06:06:57.806Z,39.38
2018-05-06T06:07:57.864Z,39.38
2018-05-06T06:08:57.860Z,39.38
2018-05-06T06:09:57.888Z,39.38
2018-05-06T06:10:57.917Z,39.38
2018-05-06T06:11:57.952Z,39.38
2018-05-06T06:12:57.972Z,39.38
2018-05-06T06:13:58.000Z,39.38
2018-05-06T06:14:58.032Z,39.38
2018-05-06T06:15:58.055Z,33.75
2018-05-06T06:16:58.092Z,33.75
2018-05-06T06:17:58.112Z,33.75
2018-05-06T06:18:58.141Z,33.75
2018-05-06T06:19:58.167Z,33.75
2018-05-06T06:20:58.196Z,33.75
2018-05-06T06:21:58.225Z,28.13
2018-05-06T06:22:58.284Z,28.13
2018-05-06T06:23:58.314Z,28.13
2018-05-06T06:24:58.308Z,28.13
2018-05-06T06:25:58.336Z,28.13
2018-05-06T06:26:58.363Z,28.13
2018-05-06T06:27:58.391Z,28.13
2018-05-06T06:28:58.420Z,28.13
2018-05-06T06:29:58.446Z,28.13
2018-05-06T06:30:58.475Z,28.13
2018-05-06T06:31:58.502Z,28.13
2018-05-06T06:32:58.599Z,28.13
2018-05-06T06:33:58.582Z,28.13
2018-05-06T06:34:58.587Z,28.13
2018-05-06T06:35:58.613Z,28.13
2018-05-06T06:36:58.642Z,28.13
2018-05-06T06:37:58.670Z,28.13
2018-05-06T06:38:58.698Z,28.13
2018-05-06T06:39:58.726Z,28.13
2018-05-06T06:40:58.755Z,28.13
2018-05-06T06:41:58.782Z,28.13
2018-05-06T06:42:58.809Z,28.13
2018-05-06T06:43:58.837Z,28.13
2018-05-06T06:44:58.865Z,28.13
2018-05-06T06:45:58.894Z,28.13
2018-05-06T06:46:58.922Z,28.13
2018-05-06T06:47:59.009Z,28.13
2018-05-06T06:48:58.978Z,28.13
2018-05-06T06:49:59.008Z,28.13
2018-05-06T06:50:59.033Z,28.13
2018-05-06T06:51:59.060Z,28.13
2018-05-06T06:52:59.091Z,28.13
2018-05-06T06:53:59.119Z,28.13
2018-05-06T06:54:59.145Z,28.13
2018-05-06T06:55:59.172Z,28.13
2018-05-06T06:56:59.201Z,28.13
2018-05-06T06:57:59.234Z,28.13
2018-05-06T06:58:59.256Z,28.13
2018-05-06T06:59:59.284Z,28.13
2018-05-06T07:00:59.311Z,28.13
2018-05-06T07:01:59.343Z,28.13
2018-05-06T07:02:59.368Z,28.13
2018-05-06T07:03:59.395Z,28.13
2018-05-06T07:04:59.424Z,28.13
2018-05-06T07:05:59.512Z,28.13
2018-05-06T07:06:59.480Z,28.13
2018-05-06T07:07:59.507Z,28.13
2018-05-06T07:08:59.537Z,28.13
2018-05-06T07:09:59.563Z,28.13
2018-05-06T07:10:59.629Z,28.13
2018-05-06T07:11:59.619Z,33.75
2018-05-06T07:12:59.647Z,33.75
2018-05-06T07:13:59.679Z,33.75
2018-05-06T07:14:59.703Z,33.75
2018-05-06T07:15:59.730Z,28.13
2018-05-06T07:16:59.760Z,28.13
2018-05-06T07:17:59.787Z,28.13
2018-05-06T07:18:59.818Z,28.13
2018-05-06T07:19:59.842Z,22.50
2018-05-06T07:20:59.870Z,22.50
2018-05-06T07:21:59.899Z,22.50
2018-05-06T07:22:59.927Z,22.50
2018-05-06T07:23:59.954Z,22.50
2018-05-06T07:24:59.982Z,22.50
2018-05-06T07:26:00.011Z,28.13
2018-05-06T07:27:00.039Z,28.13
2018-05-06T07:28:00.066Z,22.50
2018-05-06T07:29:00.096Z,22.50
2018-05-06T07:30:00.136Z,22.50
2018-05-06T07:31:00.150Z,22.50
2018-05-06T07:32:00.177Z,22.50
2018-05-06T07:33:00.205Z,22.50
2018-05-06T07:34:00.233Z,22.50
2018-05-06T07:35:00.263Z,22.50
2018-05-06T07:36:00.288Z,22.50
2018-05-06T07:37:00.316Z,22.50
2018-05-06T07:38:00.351Z,22.50
2018-05-06T07:39:00.373Z,22.50
2018-05-06T07:40:00.401Z,22.50
2018-05-06T07:41:00.428Z,22.50
2018-05-06T07:42:00.460Z,22.50
2018-05-06T07:43:00.485Z,22.50
2018-05-06T07:44:00.513Z,22.50
2018-05-06T07:45:00.540Z,22.50
2018-05-06T07:46:00.568Z,22.50
2018-05-06T07:47:00.596Z,22.50
2018-05-06T07:48:00.624Z,28.13
2018-05-06T07:49:00.682Z,28.13
2018-05-06T07:50:00.680Z,33.75
2018-05-06T07:51:00.708Z,33.75
2018-05-06T07:52:00.735Z,33.75
2018-05-06T07:53:00.763Z,33.75
2018-05-06T07:54:00.791Z,33.75
2018-05-06T07:55:00.820Z,33.75
2018-05-06T07:56:00.847Z,28.13
2018-05-06T07:57:00.901Z,28.13
2018-05-06T07:58:00.903Z,33.75
2018-05-06T07:59:00.931Z,33.75
2018-05-06T08:00:00.960Z,39.38
2018-05-06T08:01:00.987Z,45.00
2018-05-06T08:02:01.014Z,45.00
2018-05-06T08:03:01.043Z,45.00
2018-05-06T08:04:01.073Z,45.00
2018-05-06T08:05:01.098Z,39.38
2018-05-06T08:06:01.126Z,39.38
2018-05-06T08:07:01.170Z,39.38
2018-05-06T08:08:01.194Z,39.38
2018-05-06T08:09:01.232Z,39.38
2018-05-06T08:10:01.242Z,39.38
2018-05-06T08:11:01.266Z,39.38
2018-05-06T08:12:01.293Z,39.38
2018-05-06T08:13:01.321Z,39.38
2018-05-06T08:14:01.350Z,39.38
2018-05-06T08:15:01.379Z,39.38
2018-05-06T08:16:01.404Z,39.38
2018-05-06T08:17:01.433Z,39.38
2018-05-06T08:18:01.461Z,39.38
2018-05-06T08:19:01.490Z,39.38
2018-05-06T08:20:01.516Z,39.38
2018-05-06T08:21:01.545Z,39.38
2018-05-06T08:22:01.575Z,45.00
2018-05-06T08:23:01.601Z,45.00
2018-05-06T08:24:01.628Z,45.00
2018-05-06T08:25:01.656Z,45.00
2018-05-06T08:26:01.684Z,45.00
2018-05-06T08:27:01.712Z,45.00
2018-05-06T08:28:01.740Z,45.00
2018-05-06T08:29:01.774Z,45.00
2018-05-06T08:30:01.796Z,45.00
2018-05-06T08:31:01.842Z,39.38
2018-05-06T08:32:01.852Z,39.38
2018-05-06T08:33:01.884Z,39.38
2018-05-06T08:34:01.909Z,39.38
2018-05-06T08:35:01.937Z,39.38
2018-05-06T08:36:01.963Z,33.75
2018-05-06T08:37:01.992Z,33.75
2018-05-06T08:38:02.020Z,28.13
2018-05-06T08:39:02.048Z,28.13
2018-05-06T08:40:02.076Z,28.13
2018-05-06T08:41:02.108Z,28.13
2018-05-06T08:42:02.133Z,22.50
2018-05-06T08:43:02.160Z,22.50
2018-05-06T08:44:02.189Z,22.50
2018-05-06T08:45:02.225Z,22.50
2018-05-06T08:46:02.243Z,22.50
2018-05-06T08:47:02.275Z,16.88
2018-05-06T08:48:02.298Z,16.88
2018-05-06T08:49:02.326Z,16.88
2018-05-06T08:50:02.355Z,16.88
2018-05-06T08:51:02.384Z,16.88
2018-05-06T08:52:02.411Z,16.88
2018-05-06T08:53:02.438Z,16.88
2018-05-06T08:54:02.469Z,16.88
2018-05-06T08:55:02.495Z,16.88
2018-05-06T08:56:02.522Z,16.88
2018-05-06T08:57:02.550Z,16.88
2018-05-06T08:58:02.579Z,16.88
2018-05-06T08:59:02.607Z,16.88
2018-05-06T09:00:02.639Z,16.88
2018-05-06T09:01:02.664Z,16.88
2018-05-06T09:02:02.690Z,22.50
2018-05-06T09:03:02.718Z,22.50
2018-05-06T09:04:02.745Z,22.50
2018-05-06T09:05:02.773Z,22.50
2018-05-06T09:06:02.802Z,28.13
2018-05-06T09:07:02.831Z,28.13
2018-05-06T09:08:02.859Z,28.13
2018-05-06T09:09:02.885Z,33.75
2018-05-06T09:10:02.913Z,28.13
2018-05-06T09:11:03.033Z,28.13
2018-05-06T09:12:02.968Z,28.13
2018-05-06T09:13:03.035Z,28.13
2018-05-06T09:14:03.025Z,28.13
2018-05-06T09:15:03.056Z,28.13
2018-05-06T09:16:03.080Z,22.50
2018-05-06T09:17:03.108Z,28.13
2018-05-06T09:18:03.136Z,28.13
2018-05-06T09:19:03.191Z,28.13
2018-05-06T09:20:03.192Z,33.75
2018-05-06T09:21:03.220Z,33.75
2018-05-06T09:22:03.247Z,39.38
2018-05-06T09:23:03.296Z,33.75
2018-05-06T09:24:03.304Z,33.75
2018-05-06T09:25:03.332Z,28.13
2018-05-06T09:26:03.405Z,22.50
2018-05-06T09:27:03.387Z,16.88
2018-05-06T09:28:03.418Z,16.88
2018-05-06T09:29:03.443Z,16.88
2018-05-06T09:30:03.471Z,16.88
2018-05-06T09:31:03.504Z,16.88
2018-05-06T09:32:03.526Z,16.88
2018-05-06T09:33:03.557Z,16.88
2018-05-06T09:34:03.584Z,16.88
2018-05-06T09:35:03.612Z,16.88
2018-05-06T09:36:03.638Z,16.88
2018-05-06T09:37:03.666Z,16.88
2018-05-06T09:38:03.695Z,16.88
2018-05-06T09:39:03.722Z,16.88
2018-05-06T09:40:03.750Z,16.88
2018-05-06T09:41:03.778Z,16.88
2018-05-06T09:42:03.806Z,16.88
2018-05-06T09:43:03.834Z,16.88
2018-05-06T09:44:03.861Z,22.50
2018-05-06T09:45:03.889Z,22.50
2018-05-06T09:46:03.918Z,22.50
2018-05-06T09:47:03.945Z,16.88
2018-05-06T09:48:03.973Z,16.88
2018-05-06T09:49:04.004Z,16.88
2018-05-06T09:50:04.029Z,16.88
2018-05-06T09:51:04.057Z,16.88
2018-05-06T09:52:04.084Z,16.88
2018-05-06T09:53:04.113Z,16.88
2018-05-06T09:54:04.140Z,16.88
2018-05-06T09:55:04.168Z,16.88
2018-05-06T09:56:04.197Z,16.88
2018-05-06T09:57:04.224Z,16.88
2018-05-06T09:58:04.253Z,11.25
2018-05-06T09:59:04.280Z,16.88
2018-05-06T10:00:04.308Z,16.88
2018-05-06T10:01:04.337Z,16.88
2018-05-06T10:02:04.364Z,16.88
2018-05-06T10:03:04.391Z,16.88
2018-05-06T10:04:04.419Z,16.88
2018-05-06T10:05:04.447Z,16.88
2018-05-06T10:06:04.479Z,16.88
2018-05-06T10:07:04.503Z,16.88
2018-05-06T10:08:04.531Z,16.88
2018-05-06T10:09:04.560Z,16.88
2018-05-06T10:10:04.587Z,22.50
2018-05-06T10:11:04.615Z,22.50
2018-05-06T10:12:04.647Z,22.50
2018-05-06T10:13:04.670Z,22.50
2018-05-06T10:14:04.699Z,22.50
2018-05-06T10:15:04.729Z,28.13
2018-05-06T10:16:04.754Z,28.13
2018-05-06T10:17:04.782Z,28.13
2018-05-06T10:18:04.810Z,33.75
2018-05-06T10:19:04.842Z,33.75
2018-05-06T10:20:04.866Z,33.75
2018-05-06T10:21:04.893Z,28.13
2018-05-06T10:22:04.930Z,28.13
2018-05-06T10:23:04.949Z,22.50
2018-05-06T10:24:04.977Z,22.50
2018-05-06T10:25:05.006Z,16.88
2018-05-06T10:26:05.053Z,16.88
2018-05-06T10:27:05.065Z,16.88
2018-05-06T10:28:05.184Z,11.25
2018-05-06T10:29:05.117Z,11.25
2018-05-06T10:30:05.145Z,16.88
2018-05-06T10:31:05.172Z,11.25
2018-05-06T10:32:05.202Z,11.25
2018-05-06T10:33:05.229Z,11.25
2018-05-06T10:34:05.256Z,11.25
2018-05-06T10:35:05.284Z,11.25
2018-05-06T10:36:05.314Z,11.25
2018-05-06T10:37:05.341Z,11.25
2018-05-06T10:38:05.369Z,11.25
2018-05-06T10:39:05.396Z,11.25
2018-05-06T10:40:05.424Z,11.25
2018-05-06T10:41:05.452Z,11.25
2018-05-06T10:42:05.480Z,11.25
2018-05-06T10:43:05.508Z,11.25
2018-05-06T10:44:05.556Z,11.25
2018-05-06T10:45:05.569Z,11.25
2018-05-06T10:46:05.597Z,11.25
2018-05-06T10:47:05.675Z,11.25
2018-05-06T10:48:05.646Z,11.25
2018-05-06T10:49:05.704Z,11.25
2018-05-06T10:50:05.705Z,11.25
2018-05-06T10:51:05.731Z,16.88
2018-05-06T10:52:05.758Z,16.88
2018-05-06T10:53:05.787Z,16.88
2018-05-06T10:54:05.814Z,16.88
2018-05-06T10:55:05.850Z,11.25
2018-05-06T10:56:05.870Z,11.25
2018-05-06T10:57:05.898Z,11.25
2018-05-06T10:58:05.933Z,11.25
2018-05-06T10:59:05.954Z,11.25
2018-05-06T11:00:05.981Z,11.25
2018-05-06T11:01:06.009Z,11.25
2018-05-06T11:02:06.038Z,11.25
2018-05-06T11:03:06.066Z,11.25
2018-05-06T11:04:06.119Z,11.25
2018-05-06T11:05:06.121Z,11.25
2018-05-06T11:06:06.149Z,11.25
2018-05-06T11:07:06.178Z,11.25
2018-05-06T11:08:06.205Z,11.25
2018-05-06T11:09:06.245Z,11.25
2018-05-06T11:10:06.334Z,11.25
2018-05-06T11:11:06.290Z,11.25
2018-05-06T11:12:06.316Z,11.25
2018-05-06T11:13:06.347Z,11.25
2018-05-06T11:14:06.373Z,11.25
2018-05-06T11:15:06.401Z,11.25
2018-05-06T11:16:06.427Z,11.25
2018-05-06T11:17:06.455Z,11.25
2018-05-06T11:18:06.486Z,11.25
2018-05-06T11:19:06.515Z,11.25
2018-05-06T11:20:06.539Z,11.25
2018-05-06T11:21:06.571Z,11.25
2018-05-06T11:22:06.596Z,11.25
2018-05-06T11:23:06.623Z,11.25
2018-05-06T11:24:06.651Z,11.25
2018-05-06T11:25:06.679Z,11.25
2018-05-06T11:26:06.707Z,11.25
2018-05-06T11:27:06.735Z,11.25
2018-05-06T11:28:06.762Z,11.25
2018-05-06T11:29:06.796Z,11.25
2018-05-06T11:30:06.818Z,11.25
2018-05-06T11:31:06.847Z,11.25
2018-05-06T11:32:06.873Z,11.25
2018-05-06T11:33:06.901Z,11.25
2018-05-06T11:34:06.930Z,11.25
2018-05-06T11:35:06.958Z,11.25
2018-05-06T11:36:06.986Z,11.25
2018-05-06T11:37:07.013Z,11.25
2018-05-06T11:38:07.041Z,11.25
2018-05-06T11:39:07.080Z,11.25
2018-05-06T11:40:07.099Z,11.25
2018-05-06T11:41:07.217Z,11.25
2018-05-06T11:42:07.156Z,11.25
2018-05-06T11:43:07.181Z,11.25
2018-05-06T11:44:07.208Z,11.25
2018-05-06T11:45:07.248Z,11.25
2018-05-06T11:46:07.264Z,11.25
2018-05-06T11:47:07.292Z,11.25
2018-05-06T11:48:07.349Z,11.25
2018-05-06T11:49:07.348Z,11.25
2018-05-06T11:50:07.392Z,11.25
2018-05-06T11:51:07.404Z,11.25
2018-05-06T11:52:07.431Z,11.25
2018-05-06T11:53:07.460Z,11.25
2018-05-06T11:54:07.519Z,11.25
2018-05-06T11:55:07.528Z,11.25
2018-05-06T11:56:07.543Z,11.25
2018-05-06T11:57:07.571Z,11.25
2018-05-06T11:58:07.601Z,11.25
2018-05-06T11:59:07.627Z,11.25
2018-05-06T12:00:07.655Z,16.88
2018-05-06T12:01:07.682Z,11.25
2018-05-06T12:02:07.711Z,11.25
2018-05-06T12:03:07.738Z,11.25
2018-05-06T12:04:07.765Z,11.25
2018-05-06T12:05:07.795Z,16.88
2018-05-06T12:06:07.822Z,16.88
2018-05-06T12:07:07.851Z,11.25
2018-05-06T12:08:07.878Z,11.25
2018-05-06T12:09:07.906Z,11.25
2018-05-06T12:10:07.960Z,11.25
2018-05-06T12:11:07.962Z,11.25
2018-05-06T12:12:07.988Z,11.25
2018-05-06T12:13:08.017Z,11.25
2018-05-06T12:14:08.047Z,11.25
2018-05-06T12:15:08.074Z,11.25
2018-05-06T12:16:08.101Z,11.25
2018-05-06T12:17:08.133Z,16.88
2018-05-06T12:18:08.157Z,16.88
2018-05-06T12:19:08.187Z,16.88
2018-05-06T12:20:08.212Z,16.88
2018-05-06T12:21:08.240Z,16.88
2018-05-06T12:22:08.297Z,16.88
2018-05-06T12:23:08.310Z,16.88
2018-05-06T12:24:08.416Z,16.88
2018-05-06T12:25:08.351Z,22.50
2018-05-06T12:26:08.380Z,22.50
2018-05-06T12:27:08.408Z,22.50
2018-05-06T12:28:08.438Z,22.50
2018-05-06T12:29:08.463Z,28.13
2018-05-06T12:30:08.545Z,28.13
2018-05-06T12:31:08.520Z,28.13
2018-05-06T12:32:08.549Z,28.13
2018-05-06T12:33:08.578Z,28.13
2018-05-06T12:34:08.604Z,28.13
2018-05-06T12:35:08.632Z,28.13
2018-05-06T12:36:08.660Z,28.13
2018-05-06T12:37:08.687Z,33.75
2018-05-06T12:38:08.715Z,33.75
2018-05-06T12:39:08.744Z,33.75
2018-05-06T12:40:08.771Z,33.75
2018-05-06T12:41:08.800Z,33.75
2018-05-06T12:42:08.827Z,28.13
2018-05-06T12:43:08.861Z,28.13
2018-05-06T12:44:08.896Z,22.50
2018-05-06T12:45:08.911Z,22.50
2018-05-06T12:46:08.939Z,22.50
2018-05-06T12:47:08.968Z,22.50
2018-05-06T12:48:08.996Z,22.50
2018-05-06T12:49:09.023Z,22.50
2018-05-06T12:50:09.084Z,28.13
2018-05-06T12:51:09.079Z,28.13
2018-05-06T12:52:09.106Z,28.13
2018-05-06T12:53:09.134Z,33.75
2018-05-06T12:54:09.163Z,33.75
2018-05-06T12:55:09.223Z,33.75
2018-05-06T12:56:09.218Z,33.75
2018-05-06T12:57:09.246Z,33.75